sensor_id;sensor_type;location;lat;lon;timestamp;P1;durP1;ratioP1;P2;durP2;ratioP2
85295;SDS011;75700;43.958;2.882;2024-01-15T00:02:14;13.02;;;7.32;;
85295;SDS011;75700;43.958;2.882;2024-01-15T00:04:40;11.57;;;5.88;;
85295;SDS011;75700;43.958;2.882;2024-01-15T00:07:07;16.52;;;8.05;;
85295;SDS011;75700;43.958;2.882;2024-01-15T00:09:33;17.48;;;10.18;;
85295;SDS011;75700;43.958;2.882;2024-01-15T00:11:59;19.35;;;9.30;;
85295;SDS011;75700;43.958;2.882;2024-01-15T00:14:26;16.10;;;9.00;;
85295;SDS011;75700;43.958;2.882;2024-01-15T00:16:52;13.65;;;7.45;;
85295;SDS011;75700;43.958;2.882;2024-01-15T00:19:20;13.70;;;7.28;;
85295;SDS011;75700;43.958;2.882;2024-01-15T00:21:47;13.40;;;7.47;;
85295;SDS011;75700;43.958;2.882;2024-01-15T00:24:13;14.52;;;8.52;;
85295;SDS011;75700;43.958;2.882;2024-01-15T00:26:39;14.45;;;7.78;;
85295;SDS011;75700;43.958;2.882;2024-01-15T00:29:09;12.30;;;6.15;;
85295;SDS011;75700;43.958;2.882;2024-01-15T00:31:35;11.50;;;5.82;;
85295;SDS011;75700;43.958;2.882;2024-01-15T00:34:01;15.13;;;6.72;;
85295;SDS011;75700;43.958;2.882;2024-01-15T00:36:27;15.68;;;7.38;;
85295;SDS011;75700;43.958;2.882;2024-01-15T00:38:54;13.57;;;7.35;;
85295;SDS011;75700;43.958;2.882;2024-01-15T00:41:20;15.77;;;8.25;;
85295;SDS011;75700;43.958;2.882;2024-01-15T00:43:47;14.73;;;6.25;;
85295;SDS011;75700;43.958;2.882;2024-01-15T00:46:14;12.82;;;6.93;;
85295;SDS011;75700;43.958;2.882;2024-01-15T00:48:43;11.60;;;6.15;;
85295;SDS011;75700;43.958;2.882;2024-01-15T00:51:10;12.43;;;7.03;;
85295;SDS011;75700;43.958;2.882;2024-01-15T00:53:36;12.70;;;7.78;;
85295;SDS011;75700;43.958;2.882;2024-01-15T00:56:02;13.85;;;7.20;;
85295;SDS011;75700;43.958;2.882;2024-01-15T00:58:28;11.55;;;6.25;;
85295;SDS011;75700;43.958;2.882;2024-01-15T01:00:54;11.90;;;6.97;;
85295;SDS011;75700;43.958;2.882;2024-01-15T01:03:20;11.63;;;6.55;;
85295;SDS011;75700;43.958;2.882;2024-01-15T01:05:50;15.57;;;7.22;;
85295;SDS011;75700;43.958;2.882;2024-01-15T01:08:16;10.55;;;5.53;;
85295;SDS011;75700;43.958;2.882;2024-01-15T01:10:42;12.75;;;6.95;;
85295;SDS011;75700;43.958;2.882;2024-01-15T01:13:08;11.98;;;5.57;;
85295;SDS011;75700;43.958;2.882;2024-01-15T01:15:34;18.70;;;9.05;;
85295;SDS011;75700;43.958;2.882;2024-01-15T01:18:00;13.82;;;7.38;;
85295;SDS011;75700;43.958;2.882;2024-01-15T01:20:26;15.27;;;8.13;;
85295;SDS011;75700;43.958;2.882;2024-01-15T01:22:53;14.77;;;8.10;;
85295;SDS011;75700;43.958;2.882;2024-01-15T01:25:19;14.52;;;7.05;;
85295;SDS011;75700;43.958;2.882;2024-01-15T01:27:45;16.02;;;8.38;;
85295;SDS011;75700;43.958;2.882;2024-01-15T01:30:11;12.63;;;6.13;;
85295;SDS011;75700;43.958;2.882;2024-01-15T01:32:37;14.30;;;7.47;;
85295;SDS011;75700;43.958;2.882;2024-01-15T01:35:03;15.55;;;8.77;;
85295;SDS011;75700;43.958;2.882;2024-01-15T01:37:30;16.88;;;9.05;;
85295;SDS011;75700;43.958;2.882;2024-01-15T01:39:56;18.38;;;9.38;;
85295;SDS011;75700;43.958;2.882;2024-01-15T01:42:22;19.92;;;8.82;;
85295;SDS011;75700;43.958;2.882;2024-01-15T01:44:48;19.35;;;10.02;;
85295;SDS011;75700;43.958;2.882;2024-01-15T01:47:14;18.55;;;10.70;;
85295;SDS011;75700;43.958;2.882;2024-01-15T01:49:40;20.10;;;9.82;;
85295;SDS011;75700;43.958;2.882;2024-01-15T01:52:06;19.15;;;10.25;;
85295;SDS011;75700;43.958;2.882;2024-01-15T01:54:33;20.67;;;9.57;;
85295;SDS011;75700;43.958;2.882;2024-01-15T01:56:59;18.30;;;8.10;;
85295;SDS011;75700;43.958;2.882;2024-01-15T01:59:27;15.43;;;9.25;;
85295;SDS011;75700;43.958;2.882;2024-01-15T02:01:54;14.07;;;7.97;;
85295;SDS011;75700;43.958;2.882;2024-01-15T02:04:22;15.52;;;9.07;;
85295;SDS011;75700;43.958;2.882;2024-01-15T02:06:49;17.95;;;8.25;;
85295;SDS011;75700;43.958;2.882;2024-01-15T02:09:17;18.17;;;8.00;;
85295;SDS011;75700;43.958;2.882;2024-01-15T02:11:43;17.58;;;7.75;;
85295;SDS011;75700;43.958;2.882;2024-01-15T02:14:12;15.52;;;7.88;;
85295;SDS011;75700;43.958;2.882;2024-01-15T02:16:38;13.73;;;7.40;;
85295;SDS011;75700;43.958;2.882;2024-01-15T02:19:04;17.60;;;7.97;;
85295;SDS011;75700;43.958;2.882;2024-01-15T02:21:31;15.60;;;7.82;;
85295;SDS011;75700;43.958;2.882;2024-01-15T02:23:57;17.65;;;10.23;;
85295;SDS011;75700;43.958;2.882;2024-01-15T02:26:23;16.75;;;9.15;;
85295;SDS011;75700;43.958;2.882;2024-01-15T02:28:50;15.82;;;8.35;;
85295;SDS011;75700;43.958;2.882;2024-01-15T02:31:17;18.05;;;9.38;;
85295;SDS011;75700;43.958;2.882;2024-01-15T02:33:43;13.80;;;8.10;;
85295;SDS011;75700;43.958;2.882;2024-01-15T02:36:11;16.60;;;7.70;;
85295;SDS011;75700;43.958;2.882;2024-01-15T02:38:37;18.67;;;9.73;;
85295;SDS011;75700;43.958;2.882;2024-01-15T02:41:03;15.55;;;7.72;;
85295;SDS011;75700;43.958;2.882;2024-01-15T02:43:29;25.40;;;7.90;;
85295;SDS011;75700;43.958;2.882;2024-01-15T02:45:55;13.55;;;7.38;;
85295;SDS011;75700;43.958;2.882;2024-01-15T02:48:22;14.35;;;7.22;;
85295;SDS011;75700;43.958;2.882;2024-01-15T02:50:48;12.85;;;7.20;;
85295;SDS011;75700;43.958;2.882;2024-01-15T02:53:14;18.70;;;9.00;;
85295;SDS011;75700;43.958;2.882;2024-01-15T02:55:40;17.17;;;8.10;;
85295;SDS011;75700;43.958;2.882;2024-01-15T02:58:06;21.15;;;9.75;;
85295;SDS011;75700;43.958;2.882;2024-01-15T03:00:33;16.88;;;8.77;;
85295;SDS011;75700;43.958;2.882;2024-01-15T03:02:59;17.05;;;9.15;;
85295;SDS011;75700;43.958;2.882;2024-01-15T03:05:25;15.82;;;9.88;;
85295;SDS011;75700;43.958;2.882;2024-01-15T03:07:51;17.60;;;8.90;;
85295;SDS011;75700;43.958;2.882;2024-01-15T03:10:17;12.93;;;8.13;;
85295;SDS011;75700;43.958;2.882;2024-01-15T03:12:43;16.80;;;8.60;;
85295;SDS011;75700;43.958;2.882;2024-01-15T03:15:09;18.58;;;9.48;;
85295;SDS011;75700;43.958;2.882;2024-01-15T03:17:36;16.17;;;9.07;;
85295;SDS011;75700;43.958;2.882;2024-01-15T03:20:02;20.70;;;9.30;;
85295;SDS011;75700;43.958;2.882;2024-01-15T03:22:28;19.00;;;8.43;;
85295;SDS011;75700;43.958;2.882;2024-01-15T03:24:54;25.25;;;12.45;;
85295;SDS011;75700;43.958;2.882;2024-01-15T03:27:20;22.40;;;12.23;;
85295;SDS011;75700;43.958;2.882;2024-01-15T03:29:46;18.05;;;9.75;;
85295;SDS011;75700;43.958;2.882;2024-01-15T03:32:12;16.20;;;7.75;;
85295;SDS011;75700;43.958;2.882;2024-01-15T03:34:39;20.15;;;10.90;;
85295;SDS011;75700;43.958;2.882;2024-01-15T03:37:05;20.30;;;10.85;;
85295;SDS011;75700;43.958;2.882;2024-01-15T03:39:31;18.00;;;8.07;;
85295;SDS011;75700;43.958;2.882;2024-01-15T03:41:57;16.70;;;9.57;;
85295;SDS011;75700;43.958;2.882;2024-01-15T03:44:23;21.02;;;10.38;;
85295;SDS011;75700;43.958;2.882;2024-01-15T03:46:49;19.63;;;10.07;;
85295;SDS011;75700;43.958;2.882;2024-01-15T03:49:16;19.00;;;9.82;;
85295;SDS011;75700;43.958;2.882;2024-01-15T03:51:42;16.63;;;8.90;;
85295;SDS011;75700;43.958;2.882;2024-01-15T03:54:08;17.67;;;9.82;;
85295;SDS011;75700;43.958;2.882;2024-01-15T03:56:34;19.48;;;9.32;;
85295;SDS011;75700;43.958;2.882;2024-01-15T03:59:00;17.83;;;7.93;;
85295;SDS011;75700;43.958;2.882;2024-01-15T04:01:26;20.17;;;7.68;;
85295;SDS011;75700;43.958;2.882;2024-01-15T04:03:53;17.02;;;8.23;;
85295;SDS011;75700;43.958;2.882;2024-01-15T04:06:19;20.38;;;10.98;;
85295;SDS011;75700;43.958;2.882;2024-01-15T04:08:45;13.93;;;7.93;;
85295;SDS011;75700;43.958;2.882;2024-01-15T04:11:11;18.17;;;9.13;;
85295;SDS011;75700;43.958;2.882;2024-01-15T04:13:37;16.67;;;10.05;;
85295;SDS011;75700;43.958;2.882;2024-01-15T04:16:03;18.95;;;8.80;;
85295;SDS011;75700;43.958;2.882;2024-01-15T04:18:30;18.10;;;8.10;;
85295;SDS011;75700;43.958;2.882;2024-01-15T04:20:56;20.15;;;9.30;;
85295;SDS011;75700;43.958;2.882;2024-01-15T04:23:22;20.88;;;10.77;;
85295;SDS011;75700;43.958;2.882;2024-01-15T04:25:48;24.08;;;12.75;;
85295;SDS011;75700;43.958;2.882;2024-01-15T04:28:14;21.13;;;12.00;;
85295;SDS011;75700;43.958;2.882;2024-01-15T04:30:40;17.15;;;10.02;;
85295;SDS011;75700;43.958;2.882;2024-01-15T04:33:06;21.55;;;11.07;;
85295;SDS011;75700;43.958;2.882;2024-01-15T04:35:32;20.48;;;11.35;;
85295;SDS011;75700;43.958;2.882;2024-01-15T04:37:59;21.17;;;11.88;;
85295;SDS011;75700;43.958;2.882;2024-01-15T04:40:25;23.58;;;10.57;;
85295;SDS011;75700;43.958;2.882;2024-01-15T04:42:53;22.23;;;11.52;;
85295;SDS011;75700;43.958;2.882;2024-01-15T04:45:19;25.50;;;11.38;;
85295;SDS011;75700;43.958;2.882;2024-01-15T04:47:48;25.30;;;12.10;;
85295;SDS011;75700;43.958;2.882;2024-01-15T04:50:14;34.08;;;11.85;;
85295;SDS011;75700;43.958;2.882;2024-01-15T04:52:40;33.92;;;11.70;;
85295;SDS011;75700;43.958;2.882;2024-01-15T04:55:07;22.73;;;12.90;;
85295;SDS011;75700;43.958;2.882;2024-01-15T04:57:33;25.23;;;12.57;;
85295;SDS011;75700;43.958;2.882;2024-01-15T04:59:59;23.35;;;11.90;;
85295;SDS011;75700;43.958;2.882;2024-01-15T05:02:25;23.38;;;11.48;;
85295;SDS011;75700;43.958;2.882;2024-01-15T05:04:51;25.02;;;12.93;;
85295;SDS011;75700;43.958;2.882;2024-01-15T05:07:17;22.17;;;11.63;;
85295;SDS011;75700;43.958;2.882;2024-01-15T05:09:43;22.92;;;10.60;;
85295;SDS011;75700;43.958;2.882;2024-01-15T05:12:09;23.92;;;10.95;;
85295;SDS011;75700;43.958;2.882;2024-01-15T05:14:35;18.35;;;9.55;;
85295;SDS011;75700;43.958;2.882;2024-01-15T05:17:01;22.02;;;9.88;;
85295;SDS011;75700;43.958;2.882;2024-01-15T05:19:27;18.55;;;10.35;;
85295;SDS011;75700;43.958;2.882;2024-01-15T05:21:53;17.05;;;9.52;;
85295;SDS011;75700;43.958;2.882;2024-01-15T05:24:19;14.70;;;7.35;;
85295;SDS011;75700;43.958;2.882;2024-01-15T05:26:45;22.35;;;9.57;;
85295;SDS011;75700;43.958;2.882;2024-01-15T05:29:12;18.67;;;8.98;;
85295;SDS011;75700;43.958;2.882;2024-01-15T05:31:38;21.48;;;8.60;;
85295;SDS011;75700;43.958;2.882;2024-01-15T05:34:04;19.92;;;10.10;;
85295;SDS011;75700;43.958;2.882;2024-01-15T05:36:30;18.48;;;7.65;;
85295;SDS011;75700;43.958;2.882;2024-01-15T05:38:56;17.35;;;8.05;;
85295;SDS011;75700;43.958;2.882;2024-01-15T05:41:22;16.65;;;9.38;;
85295;SDS011;75700;43.958;2.882;2024-01-15T05:43:48;24.92;;;13.55;;
85295;SDS011;75700;43.958;2.882;2024-01-15T05:46:15;23.73;;;10.75;;
85295;SDS011;75700;43.958;2.882;2024-01-15T05:48:41;19.80;;;10.32;;
85295;SDS011;75700;43.958;2.882;2024-01-15T05:51:07;18.60;;;8.40;;
85295;SDS011;75700;43.958;2.882;2024-01-15T05:53:34;19.48;;;8.55;;
85295;SDS011;75700;43.958;2.882;2024-01-15T05:56:00;16.95;;;9.32;;
85295;SDS011;75700;43.958;2.882;2024-01-15T05:58:26;31.45;;;12.18;;
85295;SDS011;75700;43.958;2.882;2024-01-15T06:00:52;20.80;;;9.50;;
85295;SDS011;75700;43.958;2.882;2024-01-15T06:03:18;18.05;;;8.10;;
85295;SDS011;75700;43.958;2.882;2024-01-15T06:05:44;23.77;;;12.82;;
85295;SDS011;75700;43.958;2.882;2024-01-15T06:08:10;19.85;;;9.23;;
85295;SDS011;75700;43.958;2.882;2024-01-15T06:10:36;15.65;;;9.52;;
85295;SDS011;75700;43.958;2.882;2024-01-15T06:13:03;17.02;;;9.20;;
85295;SDS011;75700;43.958;2.882;2024-01-15T06:15:29;18.02;;;8.82;;
85295;SDS011;75700;43.958;2.882;2024-01-15T06:17:55;19.10;;;10.27;;
85295;SDS011;75700;43.958;2.882;2024-01-15T06:20:21;14.50;;;7.25;;
85295;SDS011;75700;43.958;2.882;2024-01-15T06:22:47;21.63;;;10.13;;
85295;SDS011;75700;43.958;2.882;2024-01-15T06:25:13;19.92;;;10.30;;
85295;SDS011;75700;43.958;2.882;2024-01-15T06:27:39;19.05;;;10.40;;
85295;SDS011;75700;43.958;2.882;2024-01-15T06:30:06;17.45;;;8.90;;
85295;SDS011;75700;43.958;2.882;2024-01-15T06:32:32;18.27;;;10.23;;
85295;SDS011;75700;43.958;2.882;2024-01-15T06:34:58;20.58;;;10.50;;
85295;SDS011;75700;43.958;2.882;2024-01-15T06:37:24;18.98;;;11.10;;
85295;SDS011;75700;43.958;2.882;2024-01-15T06:39:50;21.88;;;11.70;;
85295;SDS011;75700;43.958;2.882;2024-01-15T06:42:16;18.45;;;9.75;;
85295;SDS011;75700;43.958;2.882;2024-01-15T06:44:42;19.60;;;11.10;;
85295;SDS011;75700;43.958;2.882;2024-01-15T06:47:08;21.83;;;11.27;;
85295;SDS011;75700;43.958;2.882;2024-01-15T06:49:35;17.75;;;10.20;;
85295;SDS011;75700;43.958;2.882;2024-01-15T06:52:01;20.45;;;11.27;;
85295;SDS011;75700;43.958;2.882;2024-01-15T06:54:27;17.90;;;10.77;;
85295;SDS011;75700;43.958;2.882;2024-01-15T06:56:53;18.38;;;9.98;;
85295;SDS011;75700;43.958;2.882;2024-01-15T06:59:19;24.90;;;10.48;;
85295;SDS011;75700;43.958;2.882;2024-01-15T07:01:45;21.17;;;10.48;;
85295;SDS011;75700;43.958;2.882;2024-01-15T07:04:11;22.25;;;12.05;;
85295;SDS011;75700;43.958;2.882;2024-01-15T07:06:37;25.13;;;13.35;;
85295;SDS011;75700;43.958;2.882;2024-01-15T07:09:04;39.15;;;16.70;;
85295;SDS011;75700;43.958;2.882;2024-01-15T07:11:31;34.03;;;16.83;;
85295;SDS011;75700;43.958;2.882;2024-01-15T07:13:57;27.58;;;14.00;;
85295;SDS011;75700;43.958;2.882;2024-01-15T07:16:23;29.58;;;15.48;;
85295;SDS011;75700;43.958;2.882;2024-01-15T07:18:49;29.70;;;16.20;;
85295;SDS011;75700;43.958;2.882;2024-01-15T07:21:16;28.33;;;14.57;;
85295;SDS011;75700;43.958;2.882;2024-01-15T07:23:42;26.92;;;13.48;;
85295;SDS011;75700;43.958;2.882;2024-01-15T07:26:08;24.30;;;12.18;;
85295;SDS011;75700;43.958;2.882;2024-01-15T07:28:35;22.42;;;12.48;;
85295;SDS011;75700;43.958;2.882;2024-01-15T07:31:01;24.40;;;13.10;;
85295;SDS011;75700;43.958;2.882;2024-01-15T07:33:27;26.52;;;12.35;;
85295;SDS011;75700;43.958;2.882;2024-01-15T07:35:53;25.70;;;11.43;;
85295;SDS011;75700;43.958;2.882;2024-01-15T07:38:19;25.15;;;12.43;;
85295;SDS011;75700;43.958;2.882;2024-01-15T07:40:45;23.10;;;11.07;;
85295;SDS011;75700;43.958;2.882;2024-01-15T07:43:14;24.80;;;12.10;;
85295;SDS011;75700;43.958;2.882;2024-01-15T07:45:40;23.60;;;11.82;;
85295;SDS011;75700;43.958;2.882;2024-01-15T07:48:07;22.33;;;11.35;;
85295;SDS011;75700;43.958;2.882;2024-01-15T07:50:33;25.40;;;12.38;;
85295;SDS011;75700;43.958;2.882;2024-01-15T07:53:00;22.77;;;12.90;;
85295;SDS011;75700;43.958;2.882;2024-01-15T07:55:26;27.48;;;13.13;;
85295;SDS011;75700;43.958;2.882;2024-01-15T07:57:52;23.75;;;13.75;;
85295;SDS011;75700;43.958;2.882;2024-01-15T08:00:24;22.25;;;13.80;;
85295;SDS011;75700;43.958;2.882;2024-01-15T08:02:50;22.02;;;12.35;;
85295;SDS011;75700;43.958;2.882;2024-01-15T08:05:16;20.48;;;11.38;;
85295;SDS011;75700;43.958;2.882;2024-01-15T08:07:42;24.15;;;13.20;;
85295;SDS011;75700;43.958;2.882;2024-01-15T08:10:08;24.02;;;12.20;;
85295;SDS011;75700;43.958;2.882;2024-01-15T08:12:35;23.73;;;13.02;;
85295;SDS011;75700;43.958;2.882;2024-01-15T08:15:01;29.02;;;14.77;;
85295;SDS011;75700;43.958;2.882;2024-01-15T08:17:28;29.77;;;14.93;;
85295;SDS011;75700;43.958;2.882;2024-01-15T08:19:54;29.40;;;14.10;;
85295;SDS011;75700;43.958;2.882;2024-01-15T08:22:20;23.90;;;14.93;;
85295;SDS011;75700;43.958;2.882;2024-01-15T08:24:46;22.23;;;10.75;;
85295;SDS011;75700;43.958;2.882;2024-01-15T08:27:12;23.80;;;12.27;;
85295;SDS011;75700;43.958;2.882;2024-01-15T08:29:39;25.23;;;10.98;;
85295;SDS011;75700;43.958;2.882;2024-01-15T08:32:05;20.77;;;11.05;;
85295;SDS011;75700;43.958;2.882;2024-01-15T08:34:31;19.77;;;10.20;;
85295;SDS011;75700;43.958;2.882;2024-01-15T08:36:57;12.93;;;7.32;;
85295;SDS011;75700;43.958;2.882;2024-01-15T08:39:23;16.45;;;8.25;;
85295;SDS011;75700;43.958;2.882;2024-01-15T08:41:49;15.75;;;7.50;;
85295;SDS011;75700;43.958;2.882;2024-01-15T08:44:15;15.80;;;8.82;;
85295;SDS011;75700;43.958;2.882;2024-01-15T08:46:42;19.33;;;9.30;;
85295;SDS011;75700;43.958;2.882;2024-01-15T08:49:08;18.88;;;9.80;;
85295;SDS011;75700;43.958;2.882;2024-01-15T08:51:34;18.92;;;10.88;;
85295;SDS011;75700;43.958;2.882;2024-01-15T08:54:00;24.90;;;11.02;;
85295;SDS011;75700;43.958;2.882;2024-01-15T08:56:26;24.92;;;12.45;;
85295;SDS011;75700;43.958;2.882;2024-01-15T08:58:52;24.67;;;13.07;;
85295;SDS011;75700;43.958;2.882;2024-01-15T09:01:18;19.25;;;9.43;;
85295;SDS011;75700;43.958;2.882;2024-01-15T09:03:44;21.13;;;9.98;;
85295;SDS011;75700;43.958;2.882;2024-01-15T09:06:11;18.40;;;9.27;;
85295;SDS011;75700;43.958;2.882;2024-01-15T09:08:37;26.58;;;11.70;;
85295;SDS011;75700;43.958;2.882;2024-01-15T09:11:04;20.75;;;9.73;;
85295;SDS011;75700;43.958;2.882;2024-01-15T09:13:30;18.35;;;9.18;;
85295;SDS011;75700;43.958;2.882;2024-01-15T09:15:56;17.38;;;8.88;;
85295;SDS011;75700;43.958;2.882;2024-01-15T09:18:22;18.67;;;9.57;;
85295;SDS011;75700;43.958;2.882;2024-01-15T09:20:48;17.70;;;10.43;;
85295;SDS011;75700;43.958;2.882;2024-01-15T09:23:15;16.23;;;10.43;;
85295;SDS011;75700;43.958;2.882;2024-01-15T09:25:41;21.25;;;10.30;;
85295;SDS011;75700;43.958;2.882;2024-01-15T09:28:07;24.98;;;10.80;;
85295;SDS011;75700;43.958;2.882;2024-01-15T09:30:34;20.88;;;11.75;;
85295;SDS011;75700;43.958;2.882;2024-01-15T09:33:00;24.67;;;10.55;;
85295;SDS011;75700;43.958;2.882;2024-01-15T09:35:26;22.13;;;10.68;;
85295;SDS011;75700;43.958;2.882;2024-01-15T09:37:52;25.48;;;12.35;;
85295;SDS011;75700;43.958;2.882;2024-01-15T09:40:18;22.90;;;11.65;;
85295;SDS011;75700;43.958;2.882;2024-01-15T09:42:46;19.05;;;10.38;;
85295;SDS011;75700;43.958;2.882;2024-01-15T09:45:12;25.20;;;13.10;;
85295;SDS011;75700;43.958;2.882;2024-01-15T09:47:38;18.88;;;10.60;;
85295;SDS011;75700;43.958;2.882;2024-01-15T09:50:05;19.48;;;11.00;;
85295;SDS011;75700;43.958;2.882;2024-01-15T09:52:31;19.40;;;9.23;;
85295;SDS011;75700;43.958;2.882;2024-01-15T09:54:58;21.70;;;9.88;;
85295;SDS011;75700;43.958;2.882;2024-01-15T09:57:24;16.42;;;9.40;;
85295;SDS011;75700;43.958;2.882;2024-01-15T09:59:50;15.13;;;8.25;;
85295;SDS011;75700;43.958;2.882;2024-01-15T10:02:17;17.20;;;8.15;;
85295;SDS011;75700;43.958;2.882;2024-01-15T10:04:44;17.63;;;8.88;;
85295;SDS011;75700;43.958;2.882;2024-01-15T10:07:14;18.65;;;8.90;;
85295;SDS011;75700;43.958;2.882;2024-01-15T10:09:45;14.00;;;7.32;;
85295;SDS011;75700;43.958;2.882;2024-01-15T10:12:11;17.02;;;9.65;;
85295;SDS011;75700;43.958;2.882;2024-01-15T10:14:37;18.65;;;7.70;;
85295;SDS011;75700;43.958;2.882;2024-01-15T10:17:11;17.42;;;7.60;;
85295;SDS011;75700;43.958;2.882;2024-01-15T10:19:38;17.25;;;9.95;;
85295;SDS011;75700;43.958;2.882;2024-01-15T10:22:07;15.43;;;7.53;;
85295;SDS011;75700;43.958;2.882;2024-01-15T10:24:35;18.33;;;9.77;;
85295;SDS011;75700;43.958;2.882;2024-01-15T10:27:06;17.63;;;9.07;;
85295;SDS011;75700;43.958;2.882;2024-01-15T10:29:33;21.67;;;9.57;;
85295;SDS011;75700;43.958;2.882;2024-01-15T10:31:59;18.58;;;9.00;;
85295;SDS011;75700;43.958;2.882;2024-01-15T10:34:26;21.08;;;11.40;;
85295;SDS011;75700;43.958;2.882;2024-01-15T10:36:52;18.80;;;11.65;;
85295;SDS011;75700;43.958;2.882;2024-01-15T10:39:21;17.92;;;11.13;;
85295;SDS011;75700;43.958;2.882;2024-01-15T10:41:47;20.60;;;9.32;;
85295;SDS011;75700;43.958;2.882;2024-01-15T10:44:14;18.58;;;10.63;;
85295;SDS011;75700;43.958;2.882;2024-01-15T10:46:40;15.60;;;8.35;;
85295;SDS011;75700;43.958;2.882;2024-01-15T10:49:06;17.17;;;9.50;;
85295;SDS011;75700;43.958;2.882;2024-01-15T10:51:33;18.73;;;8.93;;
85295;SDS011;75700;43.958;2.882;2024-01-15T10:53:59;15.73;;;7.93;;
85295;SDS011;75700;43.958;2.882;2024-01-15T10:56:25;15.43;;;7.88;;
85295;SDS011;75700;43.958;2.882;2024-01-15T10:58:53;14.00;;;6.65;;
85295;SDS011;75700;43.958;2.882;2024-01-15T11:01:20;14.68;;;6.25;;
85295;SDS011;75700;43.958;2.882;2024-01-15T11:03:46;12.73;;;7.18;;
85295;SDS011;75700;43.958;2.882;2024-01-15T11:06:16;11.85;;;6.13;;
85295;SDS011;75700;43.958;2.882;2024-01-15T11:08:49;16.55;;;7.50;;
85295;SDS011;75700;43.958;2.882;2024-01-15T11:11:16;15.43;;;8.02;;
85295;SDS011;75700;43.958;2.882;2024-01-15T11:13:43;13.68;;;6.20;;
85295;SDS011;75700;43.958;2.882;2024-01-15T11:16:13;12.45;;;6.53;;
85295;SDS011;75700;43.958;2.882;2024-01-15T11:18:41;11.15;;;6.32;;
85295;SDS011;75700;43.958;2.882;2024-01-15T11:28:58;17.38;;;8.05;;
85295;SDS011;75700;43.958;2.882;2024-01-15T11:31:26;16.85;;;9.32;;
85295;SDS011;75700;43.958;2.882;2024-01-15T11:33:53;14.10;;;8.88;;
85295;SDS011;75700;43.958;2.882;2024-01-15T11:36:20;14.20;;;7.57;;
85295;SDS011;75700;43.958;2.882;2024-01-15T11:38:47;18.80;;;9.30;;
85295;SDS011;75700;43.958;2.882;2024-01-15T11:41:14;15.93;;;7.50;;
85295;SDS011;75700;43.958;2.882;2024-01-15T11:43:41;14.75;;;8.48;;
85295;SDS011;75700;43.958;2.882;2024-01-15T11:46:10;12.57;;;6.70;;
85295;SDS011;75700;43.958;2.882;2024-01-15T11:48:43;13.57;;;6.75;;
85295;SDS011;75700;43.958;2.882;2024-01-15T11:51:11;12.88;;;6.90;;
85295;SDS011;75700;43.958;2.882;2024-01-15T11:56:09;15.30;;;8.70;;
85295;SDS011;75700;43.958;2.882;2024-01-15T11:58:40;15.95;;;8.55;;
85295;SDS011;75700;43.958;2.882;2024-01-15T12:01:06;13.38;;;6.75;;
85295;SDS011;75700;43.958;2.882;2024-01-15T12:03:32;13.15;;;7.38;;
85295;SDS011;75700;43.958;2.882;2024-01-15T12:06:00;16.17;;;8.00;;
85295;SDS011;75700;43.958;2.882;2024-01-15T12:08:26;13.25;;;6.70;;
85295;SDS011;75700;43.958;2.882;2024-01-15T12:10:53;15.82;;;7.55;;
85295;SDS011;75700;43.958;2.882;2024-01-15T12:13:19;11.63;;;6.82;;
85295;SDS011;75700;43.958;2.882;2024-01-15T12:15:46;12.60;;;6.30;;
85295;SDS011;75700;43.958;2.882;2024-01-15T12:18:16;16.98;;;8.50;;
85295;SDS011;75700;43.958;2.882;2024-01-15T12:20:43;14.38;;;7.03;;
85295;SDS011;75700;43.958;2.882;2024-01-15T12:23:12;15.93;;;6.18;;
85295;SDS011;75700;43.958;2.882;2024-01-15T12:25:39;14.18;;;6.95;;
85295;SDS011;75700;43.958;2.882;2024-01-15T12:28:06;12.75;;;6.20;;
85295;SDS011;75700;43.958;2.882;2024-01-15T12:30:33;12.13;;;5.45;;
85295;SDS011;75700;43.958;2.882;2024-01-15T12:33:01;13.48;;;5.57;;
85295;SDS011;75700;43.958;2.882;2024-01-15T12:35:29;12.45;;;5.57;;
85295;SDS011;75700;43.958;2.882;2024-01-15T12:37:55;12.95;;;5.25;;
85295;SDS011;75700;43.958;2.882;2024-01-15T12:40:22;9.93;;;4.70;;
85295;SDS011;75700;43.958;2.882;2024-01-15T12:42:49;9.07;;;3.67;;
85295;SDS011;75700;43.958;2.882;2024-01-15T12:45:15;12.48;;;5.97;;
85295;SDS011;75700;43.958;2.882;2024-01-15T12:47:41;10.68;;;3.83;;
85295;SDS011;75700;43.958;2.882;2024-01-15T12:50:09;9.80;;;4.03;;
85295;SDS011;75700;43.958;2.882;2024-01-15T12:52:36;8.90;;;4.78;;
85295;SDS011;75700;43.958;2.882;2024-01-15T12:55:04;12.02;;;4.60;;
85295;SDS011;75700;43.958;2.882;2024-01-15T12:57:31;7.88;;;3.97;;
85295;SDS011;75700;43.958;2.882;2024-01-15T12:59:57;11.48;;;4.75;;
85295;SDS011;75700;43.958;2.882;2024-01-15T13:02:23;14.40;;;5.03;;
85295;SDS011;75700;43.958;2.882;2024-01-15T13:04:49;11.05;;;5.28;;
85295;SDS011;75700;43.958;2.882;2024-01-15T13:07:16;12.00;;;5.45;;
85295;SDS011;75700;43.958;2.882;2024-01-15T13:09:42;13.73;;;5.60;;
85295;SDS011;75700;43.958;2.882;2024-01-15T13:12:08;18.55;;;5.22;;
85295;SDS011;75700;43.958;2.882;2024-01-15T13:14:34;12.70;;;4.78;;
85295;SDS011;75700;43.958;2.882;2024-01-15T13:17:01;11.48;;;5.95;;
85295;SDS011;75700;43.958;2.882;2024-01-15T13:19:28;13.48;;;5.30;;
85295;SDS011;75700;43.958;2.882;2024-01-15T13:21:55;13.57;;;5.32;;
85295;SDS011;75700;43.958;2.882;2024-01-15T13:24:24;12.73;;;7.13;;
85295;SDS011;75700;43.958;2.882;2024-01-15T13:26:50;10.60;;;4.95;;
85295;SDS011;75700;43.958;2.882;2024-01-15T13:29:16;11.45;;;5.55;;
85295;SDS011;75700;43.958;2.882;2024-01-15T13:31:42;11.45;;;5.25;;
85295;SDS011;75700;43.958;2.882;2024-01-15T13:34:11;11.95;;;5.38;;
85295;SDS011;75700;43.958;2.882;2024-01-15T13:36:37;11.63;;;6.68;;
85295;SDS011;75700;43.958;2.882;2024-01-15T13:39:04;10.77;;;5.63;;
85295;SDS011;75700;43.958;2.882;2024-01-15T13:41:34;12.32;;;5.20;;
85295;SDS011;75700;43.958;2.882;2024-01-15T13:44:01;10.90;;;5.70;;
85295;SDS011;75700;43.958;2.882;2024-01-15T13:46:27;12.63;;;5.50;;
85295;SDS011;75700;43.958;2.882;2024-01-15T13:48:55;19.60;;;5.68;;
85295;SDS011;75700;43.958;2.882;2024-01-15T13:51:22;15.35;;;8.07;;
85295;SDS011;75700;43.958;2.882;2024-01-15T13:53:49;16.60;;;8.95;;
85295;SDS011;75700;43.958;2.882;2024-01-15T13:56:15;12.00;;;6.35;;
85295;SDS011;75700;43.958;2.882;2024-01-15T13:58:42;15.27;;;7.30;;
85295;SDS011;75700;43.958;2.882;2024-01-15T14:01:09;16.60;;;7.90;;
85295;SDS011;75700;43.958;2.882;2024-01-15T14:03:36;14.57;;;6.65;;
85295;SDS011;75700;43.958;2.882;2024-01-15T14:06:02;13.95;;;6.20;;
85295;SDS011;75700;43.958;2.882;2024-01-15T14:08:29;12.93;;;7.55;;
85295;SDS011;75700;43.958;2.882;2024-01-15T14:10:55;15.05;;;7.93;;
85295;SDS011;75700;43.958;2.882;2024-01-15T14:13:22;12.15;;;6.00;;
85295;SDS011;75700;43.958;2.882;2024-01-15T14:15:48;13.90;;;7.80;;
85295;SDS011;75700;43.958;2.882;2024-01-15T14:18:16;14.30;;;6.38;;
85295;SDS011;75700;43.958;2.882;2024-01-15T14:20:42;16.60;;;8.48;;
85295;SDS011;75700;43.958;2.882;2024-01-15T14:23:08;15.55;;;8.40;;
85295;SDS011;75700;43.958;2.882;2024-01-15T14:25:35;14.80;;;6.88;;
85295;SDS011;75700;43.958;2.882;2024-01-15T14:28:01;20.05;;;6.72;;
85295;SDS011;75700;43.958;2.882;2024-01-15T14:30:27;13.55;;;6.72;;
85295;SDS011;75700;43.958;2.882;2024-01-15T14:32:53;13.45;;;5.95;;
85295;SDS011;75700;43.958;2.882;2024-01-15T14:35:19;24.00;;;8.05;;
85295;SDS011;75700;43.958;2.882;2024-01-15T14:37:45;13.00;;;7.50;;